sensor_id;sensor_type;location;lat;lon;timestamp;temperature;humidity
53643;DHT22;39546;45.534;12.048;2022-08-19T00:04:33;23.50;71.80
53643;DHT22;39546;45.534;12.048;2022-08-19T00:10:37;23.70;71.30
53643;DHT22;39546;45.534;12.048;2022-08-19T00:16:41;23.70;71.30
53643;DHT22;39546;45.534;12.048;2022-08-19T00:22:47;23.70;71.50
53643;DHT22;39546;45.534;12.048;2022-08-19T00:28:49;23.60;71.60
53643;DHT22;39546;45.534;12.048;2022-08-19T00:34:52;23.40;72.30
53643;DHT22;39546;45.534;12.048;2022-08-19T00:40:55;23.30;72.20
53643;DHT22;39546;45.534;12.048;2022-08-19T00:46:58;23.40;72.20
53643;DHT22;39546;45.534;12.048;2022-08-19T00:53:01;23.50;71.80
53643;DHT22;39546;45.534;12.048;2022-08-19T00:59:06;23.50;71.60
53643;DHT22;39546;45.534;12.048;2022-08-19T01:05:14;23.50;71.40
53643;DHT22;39546;45.534;12.048;2022-08-19T01:11:17;23.40;71.70
53643;DHT22;39546;45.534;12.048;2022-08-19T01:17:20;23.30;72.20
53643;DHT22;39546;45.534;12.048;2022-08-19T01:23:23;23.10;72.60
53643;DHT22;39546;45.534;12.048;2022-08-19T01:29:53;23.20;72.30
53643;DHT22;39546;45.534;12.048;2022-08-19T01:36:07;23.10;72.80
53643;DHT22;39546;45.534;12.048;2022-08-19T01:42:10;23.10;72.60
53643;DHT22;39546;45.534;12.048;2022-08-19T01:48:14;23.10;72.70
53643;DHT22;39546;45.534;12.048;2022-08-19T01:54:18;23.10;72.70
53643;DHT22;39546;45.534;12.048;2022-08-19T02:00:23;23.20;72.50
53643;DHT22;39546;45.534;12.048;2022-08-19T02:06:26;22.90;73.70
53643;DHT22;39546;45.534;12.048;2022-08-19T02:12:35;22.80;73.80
53643;DHT22;39546;45.534;12.048;2022-08-19T02:18:37;22.90;73.30
53643;DHT22;39546;45.534;12.048;2022-08-19T02:24:39;23.00;73.00
53643;DHT22;39546;45.534;12.048;2022-08-19T02:30:42;23.00;73.10
53643;DHT22;39546;45.534;12.048;2022-08-19T02:37:00;22.90;73.40
53643;DHT22;39546;45.534;12.048;2022-08-19T02:43:04;22.90;73.30
53643;DHT22;39546;45.534;12.048;2022-08-19T02:49:09;22.60;74.50
53643;DHT22;39546;45.534;12.048;2022-08-19T02:55:32;22.30;75.40
53643;DHT22;39546;45.534;12.048;2022-08-19T03:01:39;22.10;76.20
53643;DHT22;39546;45.534;12.048;2022-08-19T03:07:54;22.10;76.30
53643;DHT22;39546;45.534;12.048;2022-08-19T03:13:56;22.10;76.30
53643;DHT22;39546;45.534;12.048;2022-08-19T03:19:59;22.00;76.20
53643;DHT22;39546;45.534;12.048;2022-08-19T03:26:04;22.10;76.10
53643;DHT22;39546;45.534;12.048;2022-08-19T03:32:06;22.10;75.80
53643;DHT22;39546;45.534;12.048;2022-08-19T03:38:08;22.20;75.70
53643;DHT22;39546;45.534;12.048;2022-08-19T03:44:11;22.00;75.80
53643;DHT22;39546;45.534;12.048;2022-08-19T03:50:13;22.20;75.30
53643;DHT22;39546;45.534;12.048;2022-08-19T03:56:15;22.30;74.70
53643;DHT22;39546;45.534;12.048;2022-08-19T04:02:17;22.30;74.60
53643;DHT22;39546;45.534;12.048;2022-08-19T04:08:19;22.30;74.30
53643;DHT22;39546;45.534;12.048;2022-08-19T04:14:29;22.40;74.00
53643;DHT22;39546;45.534;12.048;2022-08-19T04:20:40;22.50;73.60
53643;DHT22;39546;45.534;12.048;2022-08-19T04:26:43;22.60;73.30
53643;DHT22;39546;45.534;12.048;2022-08-19T04:32:45;22.60;73.20
53643;DHT22;39546;45.534;12.048;2022-08-19T04:38:48;22.50;73.00
53643;DHT22;39546;45.534;12.048;2022-08-19T04:44:51;22.40;73.30
53643;DHT22;39546;45.534;12.048;2022-08-19T04:50:55;22.30;73.30
53643;DHT22;39546;45.534;12.048;2022-08-19T04:57:00;22.30;73.30
53643;DHT22;39546;45.534;12.048;2022-08-19T05:03:38;22.30;73.30
53643;DHT22;39546;45.534;12.048;2022-08-19T05:09:41;22.30;73.10
53643;DHT22;39546;45.534;12.048;2022-08-19T05:15:52;22.30;73.10
53643;DHT22;39546;45.534;12.048;2022-08-19T05:21:55;22.20;73.20
53643;DHT22;39546;45.534;12.048;2022-08-19T05:28:16;22.10;73.30
53643;DHT22;39546;45.534;12.048;2022-08-19T05:34:19;22.30;73.00
53643;DHT22;39546;45.534;12.048;2022-08-19T05:40:23;22.40;72.60
53643;DHT22;39546;45.534;12.048;2022-08-19T05:46:27;22.40;72.50
53643;DHT22;39546;45.534;12.048;2022-08-19T05:52:30;22.40;72.60
53643;DHT22;39546;45.534;12.048;2022-08-19T05:58:32;22.40;72.80
53643;DHT22;39546;45.534;12.048;2022-08-19T06:04:37;22.40;72.80
53643;DHT22;39546;45.534;12.048;2022-08-19T06:10:41;22.60;72.60
53643;DHT22;39546;45.534;12.048;2022-08-19T06:16:45;22.70;72.30
53643;DHT22;39546;45.534;12.048;2022-08-19T06:22:48;22.90;72.10
53643;DHT22;39546;45.534;12.048;2022-08-19T06:28:52;22.90;72.00
53643;DHT22;39546;45.534;12.048;2022-08-19T06:34:54;23.00;71.80
53643;DHT22;39546;45.534;12.048;2022-08-19T06:41:02;23.00;71.80
53643;DHT22;39546;45.534;12.048;2022-08-19T06:47:07;23.00;71.90
53643;DHT22;39546;45.534;12.048;2022-08-19T06:53:10;23.00;71.90
53643;DHT22;39546;45.534;12.048;2022-08-19T06:59:18;23.10;71.90
53643;DHT22;39546;45.534;12.048;2022-08-19T07:05:20;23.30;71.60
53643;DHT22;39546;45.534;12.048;2022-08-19T07:11:22;23.40;71.30
53643;DHT22;39546;45.534;12.048;2022-08-19T07:17:25;23.50;71.20
53643;DHT22;39546;45.534;12.048;2022-08-19T07:23:27;23.30;71.30
53643;DHT22;39546;45.534;12.048;2022-08-19T07:29:31;23.20;71.40
53643;DHT22;39546;45.534;12.048;2022-08-19T07:35:41;23.20;71.50
53643;DHT22;39546;45.534;12.048;2022-08-19T07:41:45;23.20;71.50
53643;DHT22;39546;45.534;12.048;2022-08-19T07:47:47;23.20;71.60
53643;DHT22;39546;45.534;12.048;2022-08-19T07:53:50;23.20;71.40
53643;DHT22;39546;45.534;12.048;2022-08-19T07:59:52;23.30;71.30
53643;DHT22;39546;45.534;12.048;2022-08-19T08:05:54;23.30;71.30
53643;DHT22;39546;45.534;12.048;2022-08-19T08:12:19;23.30;71.20
53643;DHT22;39546;45.534;12.048;2022-08-19T08:18:24;23.30;71.20
53643;DHT22;39546;45.534;12.048;2022-08-19T08:24:28;23.40;71.10
53643;DHT22;39546;45.534;12.048;2022-08-19T08:30:32;23.40;71.00
53643;DHT22;39546;45.534;12.048;2022-08-19T08:37:06;23.50;70.80
53643;DHT22;39546;45.534;12.048;2022-08-19T08:49:27;23.30;71.60
53643;DHT22;39546;45.534;12.048;2022-08-19T08:55:31;23.30;71.70
53643;DHT22;39546;45.534;12.048;2022-08-19T09:01:34;23.30;71.60
53643;DHT22;39546;45.534;12.048;2022-08-19T09:20:30;23.30;71.90
53643;DHT22;39546;45.534;12.048;2022-08-19T09:26:33;23.40;71.80
53643;DHT22;39546;45.534;12.048;2022-08-19T09:32:35;23.40;71.80
53643;DHT22;39546;45.534;12.048;2022-08-19T09:38:39;23.50;71.80
53643;DHT22;39546;45.534;12.048;2022-08-19T09:44:42;23.60;71.70
53643;DHT22;39546;45.534;12.048;2022-08-19T09:50:45;23.70;71.50
53643;DHT22;39546;45.534;12.048;2022-08-19T09:56:47;23.80;71.10
53643;DHT22;39546;45.534;12.048;2022-08-19T10:02:49;23.90;71.00
53643;DHT22;39546;45.534;12.048;2022-08-19T10:08:51;24.20;70.70
53643;DHT22;39546;45.534;12.048;2022-08-19T10:14:54;24.30;70.20
53643;DHT22;39546;45.534;12.048;2022-08-19T10:27:13;24.50;69.70
53643;DHT22;39546;45.534;12.048;2022-08-19T10:33:15;24.80;69.30
53643;DHT22;39546;45.534;12.048;2022-08-19T10:39:18;25.00;69.00
53643;DHT22;39546;45.534;12.048;2022-08-19T10:45:20;25.20;68.80
53643;DHT22;39546;45.534;12.048;2022-08-19T10:51:25;25.10;68.70
53643;DHT22;39546;45.534;12.048;2022-08-19T10:58:12;25.00;68.20
53643;DHT22;39546;45.534;12.048;2022-08-19T11:04:15;25.20;68.20
53643;DHT22;39546;45.534;12.048;2022-08-19T11:10:19;25.40;67.90
53643;DHT22;39546;45.534;12.048;2022-08-19T11:16:24;25.50;67.00
53643;DHT22;39546;45.534;12.048;2022-08-19T11:22:27;25.60;66.50
53643;DHT22;39546;45.534;12.048;2022-08-19T11:28:29;25.70;65.90
53643;DHT22;39546;45.534;12.048;2022-08-19T11:34:32;26.00;65.20
53643;DHT22;39546;45.534;12.048;2022-08-19T11:40:34;26.10;64.10
53643;DHT22;39546;45.534;12.048;2022-08-19T11:46:37;26.10;64.10
53643;DHT22;39546;45.534;12.048;2022-08-19T11:52:39;26.10;64.50
53643;DHT22;39546;45.534;12.048;2022-08-19T11:58:41;26.10;65.40
53643;DHT22;39546;45.534;12.048;2022-08-19T12:04:44;26.00;66.20
53643;DHT22;39546;45.534;12.048;2022-08-19T12:10:46;25.90;66.50
53643;DHT22;39546;45.534;12.048;2022-08-19T12:16:48;26.00;66.80
53643;DHT22;39546;45.534;12.048;2022-08-19T12:22:51;26.10;66.80
53643;DHT22;39546;45.534;12.048;2022-08-19T12:28:53;26.20;66.70
53643;DHT22;39546;45.534;12.048;2022-08-19T12:34:55;26.20;66.30
53643;DHT22;39546;45.534;12.048;2022-08-19T12:40:58;26.10;66.30
53643;DHT22;39546;45.534;12.048;2022-08-19T12:47:00;26.00;66.40
53643;DHT22;39546;45.534;12.048;2022-08-19T12:53:21;26.00;66.40
53643;DHT22;39546;45.534;12.048;2022-08-19T12:59:23;26.20;66.30
53643;DHT22;39546;45.534;12.048;2022-08-19T13:05:27;26.30;66.10
53643;DHT22;39546;45.534;12.048;2022-08-19T13:11:30;26.40;65.80
53643;DHT22;39546;45.534;12.048;2022-08-19T13:17:36;26.40;65.40
53643;DHT22;39546;45.534;12.048;2022-08-19T13:23:39;26.50;65.40
53643;DHT22;39546;45.534;12.048;2022-08-19T13:29:42;26.50;65.10
53643;DHT22;39546;45.534;12.048;2022-08-19T13:36:02;26.60;64.80
53643;DHT22;39546;45.534;12.048;2022-08-19T13:42:09;26.80;64.10
53643;DHT22;39546;45.534;12.048;2022-08-19T13:48:11;26.90;63.70
53643;DHT22;39546;45.534;12.048;2022-08-19T13:54:13;26.90;63.20
53643;DHT22;39546;45.534;12.048;2022-08-19T14:00:17;26.90;63.20
53643;DHT22;39546;45.534;12.048;2022-08-19T14:06:20;26.90;63.00
53643;DHT22;39546;45.534;12.048;2022-08-19T14:12:22;27.00;62.90
53643;DHT22;39546;45.534;12.048;2022-08-19T14:18:25;27.10;62.60
53643;DHT22;39546;45.534;12.048;2022-08-19T14:24:27;27.30;62.30
53643;DHT22;39546;45.534;12.048;2022-08-19T14:30:32;27.30;62.10
53643;DHT22;39546;45.534;12.048;2022-08-19T14:36:45;27.50;62.20
53643;DHT22;39546;45.534;12.048;2022-08-19T14:42:48;27.80;62.00
53643;DHT22;39546;45.534;12.048;2022-08-19T14:48:50;27.80;61.80
53643;DHT22;39546;45.534;12.048;2022-08-19T14:54:52;27.80;61.70
53643;DHT22;39546;45.534;12.048;2022-08-19T15:00:54;27.80;61.10
53643;DHT22;39546;45.534;12.048;2022-08-19T15:06:56;27.90;60.10
53643;DHT22;39546;45.534;12.048;2022-08-19T15:12:58;28.00;60.40
53643;DHT22;39546;45.534;12.048;2022-08-19T15:19:01;28.10;59.80
53643;DHT22;39546;45.534;12.048;2022-08-19T15:25:04;28.20;59.90
53643;DHT22;39546;45.534;12.048;2022-08-19T15:31:07;28.30;59.70
53643;DHT22;39546;45.534;12.048;2022-08-19T15:37:10;28.30;59.40
53643;DHT22;39546;45.534;12.048;2022-08-19T15:43:12;28.40;59.30
53643;DHT22;39546;45.534;12.048;2022-08-19T15:49:16;28.30;59.90
53643;DHT22;39546;45.534;12.048;2022-08-19T15:55:21;28.20;60.60
53643;DHT22;39546;45.534;12.048;2022-08-19T16:01:25;28.50;60.60
53643;DHT22;39546;45.534;12.048;2022-08-19T16:07:46;28.50;60.50
53643;DHT22;39546;45.534;12.048;2022-08-19T16:13:50;28.50;60.60
53643;DHT22;39546;45.534;12.048;2022-08-19T16:19:52;28.40;61.00
53643;DHT22;39546;45.534;12.048;2022-08-19T16:25:55;28.40;61.10
53643;DHT22;39546;45.534;12.048;2022-08-19T16:31:57;28.40;61.30
53643;DHT22;39546;45.534;12.048;2022-08-19T16:37:59;28.30;61.50
53643;DHT22;39546;45.534;12.048;2022-08-19T16:44:03;28.20;61.40
53643;DHT22;39546;45.534;12.048;2022-08-19T16:50:07;28.10;61.60
53643;DHT22;39546;45.534;12.048;2022-08-19T16:56:10;28.10;61.50
53643;DHT22;39546;45.534;12.048;2022-08-19T17:02:48;28.20;61.40
53643;DHT22;39546;45.534;12.048;2022-08-19T17:08:52;28.40;61.10
53643;DHT22;39546;45.534;12.048;2022-08-19T17:14:55;28.30;61.40
53643;DHT22;39546;45.534;12.048;2022-08-19T17:20:58;28.20;61.70
53643;DHT22;39546;45.534;12.048;2022-08-19T17:27:02;28.00;62.00
53643;DHT22;39546;45.534;12.048;2022-08-19T17:33:06;27.90;62.20
53643;DHT22;39546;45.534;12.048;2022-08-19T17:39:09;27.60;62.60
53643;DHT22;39546;45.534;12.048;2022-08-19T17:45:12;27.40;63.00
53643;DHT22;39546;45.534;12.048;2022-08-19T17:51:21;27.20;63.40
53643;DHT22;39546;45.534;12.048;2022-08-19T17:57:24;27.00;63.60
53643;DHT22;39546;45.534;12.048;2022-08-19T18:03:26;26.90;63.80
53643;DHT22;39546;45.534;12.048;2022-08-19T18:09:37;26.80;64.00
53643;DHT22;39546;45.534;12.048;2022-08-19T18:15:40;26.70;64.20
53643;DHT22;39546;45.534;12.048;2022-08-19T18:21:43;26.60;64.30
53643;DHT22;39546;45.534;12.048;2022-08-19T18:27:45;26.50;64.50
53643;DHT22;39546;45.534;12.048;2022-08-19T18:33:48;26.30;64.60
53643;DHT22;39546;45.534;12.048;2022-08-19T18:39:53;26.30;64.70
53643;DHT22;39546;45.534;12.048;2022-08-19T18:46:13;26.30;64.80
53643;DHT22;39546;45.534;12.048;2022-08-19T18:52:35;26.10;64.90
53643;DHT22;39546;45.534;12.048;2022-08-19T18:58:38;26.10;65.00
53643;DHT22;39546;45.534;12.048;2022-08-19T19:04:41;26.00;65.10
53643;DHT22;39546;45.534;12.048;2022-08-19T19:10:43;25.90;65.20
53643;DHT22;39546;45.534;12.048;2022-08-19T19:16:46;25.80;65.20
53643;DHT22;39546;45.534;12.048;2022-08-19T19:22:51;25.80;65.30
53643;DHT22;39546;45.534;12.048;2022-08-19T19:28:53;25.80;65.40
53643;DHT22;39546;45.534;12.048;2022-08-19T19:34:58;25.70;65.40
53643;DHT22;39546;45.534;12.048;2022-08-19T19:41:00;25.70;65.40
53643;DHT22;39546;45.534;12.048;2022-08-19T19:47:12;25.60;65.60
53643;DHT22;39546;45.534;12.048;2022-08-19T19:53:16;25.50;65.70
53643;DHT22;39546;45.534;12.048;2022-08-19T19:59:18;25.40;65.90
53643;DHT22;39546;45.534;12.048;2022-08-19T20:05:21;25.30;66.10
53643;DHT22;39546;45.534;12.048;2022-08-19T20:11:33;25.20;66.20
53643;DHT22;39546;45.534;12.048;2022-08-19T20:17:36;25.10;66.20
53643;DHT22;39546;45.534;12.048;2022-08-19T20:23:43;25.10;66.30
53643;DHT22;39546;45.534;12.048;2022-08-19T20:29:45;25.10;66.30
53643;DHT22;39546;45.534;12.048;2022-08-19T20:35:47;25.10;66.40
53643;DHT22;39546;45.534;12.048;2022-08-19T20:41:50;25.10;66.40
53643;DHT22;39546;45.534;12.048;2022-08-19T20:47:52;25.00;66.50
53643;DHT22;39546;45.534;12.048;2022-08-19T20:53:55;24.80;66.60
53643;DHT22;39546;45.534;12.048;2022-08-19T20:59:57;24.80;66.70
53643;DHT22;39546;45.534;12.048;2022-08-19T21:06:00;24.80;66.70
53643;DHT22;39546;45.534;12.048;2022-08-19T21:12:05;24.70;66.70
53643;DHT22;39546;45.534;12.048;2022-08-19T21:18:09;24.70;66.90
53643;DHT22;39546;45.534;12.048;2022-08-19T21:24:11;24.60;67.00
53643;DHT22;39546;45.534;12.048;2022-08-19T21:30:13;24.50;67.10
53643;DHT22;39546;45.534;12.048;2022-08-19T21:36:15;24.60;67.10
53643;DHT22;39546;45.534;12.048;2022-08-19T21:42:18;24.60;67.00
53643;DHT22;39546;45.534;12.048;2022-08-19T21:48:21;24.40;67.20
53643;DHT22;39546;45.534;12.048;2022-08-19T21:54:23;24.30;67.50
53643;DHT22;39546;45.534;12.048;2022-08-19T22:00:26;24.30;67.60
53643;DHT22;39546;45.534;12.048;2022-08-19T22:06:29;24.30;67.70
53643;DHT22;39546;45.534;12.048;2022-08-19T22:12:33;24.30;67.70
53643;DHT22;39546;45.534;12.048;2022-08-19T22:18:36;24.30;67.60
53643;DHT22;39546;45.534;12.048;2022-08-19T22:24:38;24.00;67.90
53643;DHT22;39546;45.534;12.048;2022-08-19T22:30:42;23.90;68.10
53643;DHT22;39546;45.534;12.048;2022-08-19T22:36:44;23.90;68.10
53643;DHT22;39546;45.534;12.048;2022-08-19T22:42:46;23.90;68.00
53643;DHT22;39546;45.534;12.048;2022-08-19T22:48:49;24.00;67.90
53643;DHT22;39546;45.534;12.048;2022-08-19T22:54:54;24.10;67.80
53643;DHT22;39546;45.534;12.048;2022-08-19T23:01:21;24.20;67.80
53643;DHT22;39546;45.534;12.048;2022-08-19T23:07:25;24.20;67.90
53643;DHT22;39546;45.534;12.048;2022-08-19T23:13:27;24.10;67.90
53643;DHT22;39546;45.534;12.048;2022-08-19T23:19:32;24.00;68.20
53643;DHT22;39546;45.534;12.048;2022-08-19T23:25:36;24.00;68.20
53643;DHT22;39546;45.534;12.048;2022-08-19T23:31:38;24.10;68.30
53643;DHT22;39546;45.534;12.048;2022-08-19T23:37:40;24.00;68.30
53643;DHT22;39546;45.534;12.048;2022-08-19T23:43:42;23.90;68.40
53643;DHT22;39546;45.534;12.048;2022-08-19T23:49:45;23.80;68.50
53643;DHT22;39546;45.534;12.048;2022-08-19T23:55:49;23.80;68.60
